DIVISION OF AGRICULTURAL PHYSICS
INDIAN AGRICULTURAL RESEARCH INSTITUTE
NEW DELHI, INDIA-110012
Phone No. 011-25843014

(IARI: Latitude: 280 38'23"N, Longitude:770 09'27"E., Altitude: 228.61m above msl.)
Duration of data : Last 60 days
Date Max.
Temp.
(oC)
Min.
Temp.
(oC)
Rainfall
(mm)
Wind
Speed
(Kmph)
Wind
Direction-I
Wind
Direction-II
Weather
condition-I
(Code 0-9)
Weather
condition-II
(Code 0-9)
RH-I
(%)
RH-II
(%)
BSS
(hrs)
Evaporation
(mm)
2018-12-21 21.0 2.1 0.00 1.3 C NW 4 4 97.0 72.0 6.1 1.8
2018-12-22 19.6 2.3 0.00 2.1 C S 4 4 97.0 61.0 5.5 1.7
2018-12-23 21.0 2.6 0.00 0.7 C SW 4 1 93.0 72.0 4.3 1.6
2018-12-24 21.0 3.0 0.00 1.0 C N 4 4 94.0 62.0 0.8 1.4
2018-12-25 20.4 2.4 0.00 1.4 C W 4 0 97.0 71.0 1.6 1.6
2018-12-26 18.2 1.0 0.00 3.0 C N 4 4 96.0 60.0 4.6 1.7
2018-12-27 20.0 2.0 0.00 1.6 C W 4 4 93.0 70.0 5.0 1.8
2018-12-28 20.0 4.4 0.00 2.5 W NW 4 4 91.0 76.0 3.2 1.5
2018-12-29 17.5 0.5 0.00 3.3 C NNW 4 0 96.0 33.0 0.5 1.4
2018-12-30 19.4 1.0 0.00 2.3 C NW 4 0 89.0 55.0 6.6 1.5
2018-12-31 21.2 1.9 0.00 1.1 C W 4 4 93.0 62.0 6.2 1.8
2019-01-01 21.5 2.0 0.00 2.4 C W 4 0 93.0 61.0 5.4 1.6
2019-01-02 22.0 4.8 0.00 1.5 C SSE 4 0 94.0 71.0 5.3 1.8
2019-01-03 23.0 5.0 0.00 1.3 C W 4 2 97.0 72.0 1.3 1.7
2019-01-04 19.2 5.2 0.00 4.4 W NW 4 4 97.0 70.0 3.8 1.4
2019-01-05 18.0 7.2 0.00 1.6 C SSE 4 4 97.0 67.0 0.4 1.2
2019-01-06 20.0 9.0 2.60 3.9 E C 6 4 93.0 87.0 3.7 1.4
2019-01-07 19.0 5.5 2.40 2.3 C W 4 1 91.0 75.0 0.0 1.2
2019-01-08 19.0 6.0 0.00 2.1 C W 4 4 97.0 77.0 2.1 1.5
2019-01-09 18.6 8.6 0.00 5.0 W W 4 0 92.0 70.0 6.3 1.6
2019-01-10 19.5 5.2 0.00 4.5 C NW 4 0 97.0 65.0 7.4 1.6
2019-01-11 20.2 3.5 0.00 2.4 C E 4 1 93.0 63.0 6.6 1.8
2019-01-12 21.0 6.0 0.00 1.0 C SE 4 1 86.0 63.0 3.4 1.4
2019-01-13 21.4 8.4 0.00 2.0 C NW 4 1 93.0 66.0 0.5 1.5
2019-01-14 22.2 7.9 0.00 3.5 W W 4 0 87.0 69.0 0.0 1.7
2019-01-15 19.2 6.8 0.00 8.3 W W 4 1 88.0 70.0 8.6 1.8
2019-01-16 17.2 3.5 0.00 3.9 C S 4 1 94.0 70.0 1.2 1.2
2019-01-17 19.8 3.0 0.00 1.5 C NW 4 4 97.0 66.0 1.9 1.5
2019-01-18 20.6 3.0 0.00 1.4 C W 4 4 100.0 72.0 3.5 1.3
2019-01-19 20.0 4.5 0.00 2.4 C S 4 0 91.0 58.0 6.1 1.2
2019-01-20 24.0 7.0 0.00 1.5 C W 4 0 97.0 59.0 6.5 2.0
2019-01-21 27.4 12.0 0.00 1.2 SE E 4 4 89.0 81.0 5.1 2.2
2019-01-22 22.5 13.0 20.60 9.8 SE S 6 4 98.0 90.0 0.5 2.1
2019-01-23 18.0 7.0 22.40 3.1 C N 4 4 94.0 82.0 0.0 2.0
2019-01-24 18.4 9.4 0.00 2.3 C N 4 4 95.0 68.0 1.1 1.8
2019-01-25 20.0 10.3 4.00 4.0 N N 4 4 95.0 84.0 1.5 1.5
2019-01-26 17.8 6.4 0.00 3.0 C N 4 0 91.0 69.0 4.7 1.8
2019-01-27 18.0 4.2 0.00 4.1 NNW NNW 4 0 97.0 71.0 8.4 2.0
2019-01-28 16.5 6.5 0.00 5.6 W NW 4 0 87.0 72.0 3.3 1.5
2019-01-29 18.0 5.2 0.00 6.0 SW NW 4 0 86.0 66.0 7.9 1.9
2019-01-30 19.2 4.1 0.00 3.4 C NW 4 1 97.0 60.0 8.3 1.8
2019-01-31 20.0 8.4 0.00 2.6 C S 4 2 88.0 79.0 2.3 1.5
2019-02-01 20.0 10.0 0.00 4.7 C NW 4 0 95.0 82.0 2.6 1.3
2019-02-02 21.5 8.2 0.00 6.9 W W 4 4 94.0 83.0 1.9 1.7
2019-02-03 17.0 9.5 0.00 6.1 NW W 4 0 95.0 80.0 0.0 1.3
2019-02-04 18.2 5.2 0.00 5.3 W W 4 0 97.0 73.0 2.9 1.5
2019-02-05 21.6 8.0 0.00 1.9 C S 4 1 97.0 70.0 7.4 1.8
2019-02-06 23.7 11.5 0.00 2.3 SSE SE 4 2 95.0 78.0 2.5 2.8
2019-02-07 24.2 15.4 0.00 7.0 S SSE 2 1 98.0 92.0 0.4 1.9
2019-02-08 19.0 5.8 55.20 7.2 C 4 0 100.0 0.0 0.0 2.6
2019-02-09 19.5 7.5 0.00 6.7 NNW SW 4 1 87.0 65.0 8.0 2.2
2019-02-10 19.4 5.5 0.00 4.2 NNW C 4 1 97.0 73.0 8.6 2.5
2019-02-11 19.0 6.0 0.00 2.5 C W 4 1 92.0 59.0 3.1 3.3
2019-02-12 21.4 10.0 0.00 1.4 C W 4 4 97.0 78.0 5.0 2.2
2019-02-13 22.2 10.2 0.00 1.5 C S 4 1 97.0 60.0 2.8 1.5
2019-02-14 24.4 13.5 1.40 2.2 N SSE 4 1 89.0 80.0 2.4 1.8
2019-02-15 21.4 11.2 5.80 6.5 C NW 4 1 98.0 83.0 0.4 1.2
2019-02-16 21.0 13.0 0.00 6.4 W SE 4 1 98.0 94.0 0.0 1.5
2019-02-17 19.0 10.8 0.00 5.0 W NW 4 0 97.0 80.0 0.0 1.4
2019-02-18 20.5 10.4 0.00 4.4 C SE 4 0 93.0 67.0 7.0 1.7
2019-02-19 24.0 10.9 3.80 4.0 C 4 0 98.0 0.0 4.3 2.2

Abbrevations used:
I - Observations taken at 7.21 hrs. and II - Observations taken at 14:21 hrs.
Codes:
0 - Fair (clear and slightly clouded), 1 - Variable Sky, 2 - Mainly Overcast, 3 - Sand Storm or Dust Storm,4 - Fog or Thick Dust Haze, 5 - Drizzle, 6 - Rain,7 - Snow or Sleet, 8 - Shower (s), 9 - Thunder Storm with or without Precipitation